Cleveland, OH (44194)

10:59 PM EDT on August 29, 2015 (GMT -0400)
Burke Lakefront | | Change Station
CLOSE
Current Station
Airport
Location: Cleveland Burke,
Elevation: 584 ft
Nearby Weather Stations

Elev 584 ft 41.52 °N, 81.68 °W | Updated 6 minutes ago

Mostly Cloudy
Mostly Cloudy
73 °F
Feels Like 73 °F
N
4
Wind Variable Wind from SSE

Today
High -- | Low -- °F
--% Chance of Precip.
Yesterday
High -- | Low -- °F
Precip. -- in
6:49 AM 8:05 PM
Full, 100% visible
Pressure 30.05 in
Visibility 10.0 miles
Clouds Scattered Clouds 10000 ft
Mostly Cloudy 12000 ft
Dew Point 67 °F
Humidity 81%
Rainfall 0.06 in
Snow Depth Not available.
UV 0 out of 12
Pollen 9.40 out of 12
Air Quality Not available.
Flu Activity Not available.
METAR KBKL 300253Z 15003KT 10SM SCT100 BKN120 23/19 A3006 RMK AO2 SLP176 60006 T02280194 50007
Pressure 30.05 in
Visibility 10.0 miles
Clouds Scattered Clouds 10000 ft
Mostly Cloudy 12000 ft
Dew Point 67 °F
Humidity 81%
Rainfall 0.06 in
Snow Depth Not available.
UV 0 out of 12
Pollen 9.40 out of 12
Air Quality Not available.
Flu Activity Not available.
METAR KBKL 300253Z 15003KT 10SM SCT100 BKN120 23/19 A3006 RMK AO2 SLP176 60006 T02280194 50007

10-Day Weather Forecast

×

Almanac

Astronomy

Aug. 29, 2015 Rise Set
Actual Time
Civil Twilight
Nautical Twilight
Astronomical Twilight
Moon
Length of Visible Light
Length of Day
Tomorrow will be .
, % of the Moon is Illuminated

Today's Extremes

State Highs State Lows

Community

WunderPhotos

Upload Photos

1,850,855 photos uploaded!

WunderBlogs® & News

Nearby

Air Quality

  Air Quality AQ Index Pollutant
Not available.

Snow Depth

Station Depth Elevation

Earthquake Activity

City Distance Mag. Time & Date
Minimum magnitude displayed is 2.5.

Coastal Water Temperatures

Place Temperature

Stations

Nearby Weather Stations

Station Location Temp. Windchill Dew Point Humidity Wind Precip. Elev Updated Type